createdAt,value
2019-02-09T00:02:08.922Z,75.16
2019-02-09T00:04:40.465Z,75.16
2019-02-09T00:07:11.869Z,75.42
2019-02-09T00:09:43.454Z,75.57
2019-02-09T00:12:15.220Z,75.57
2019-02-09T00:14:46.845Z,76.16
2019-02-09T00:17:18.450Z,75.38
2019-02-09T00:19:50.562Z,76.10
2019-02-09T00:22:21.999Z,76.10
2019-02-09T00:24:53.748Z,75.39
2019-02-09T00:27:25.530Z,75.90
2019-02-09T00:29:56.897Z,76.07
2019-02-09T00:32:28.487Z,75.88
2019-02-09T00:35:00.269Z,76.24
2019-02-09T00:37:31.932Z,75.93
2019-02-09T00:40:03.542Z,75.20
2019-02-09T00:42:35.067Z,76.16
2019-02-09T00:45:07.621Z,76.20
2019-02-09T00:47:39.381Z,76.20
2019-02-09T00:50:11.015Z,76.05
2019-02-09T00:52:42.910Z,76.28
2019-02-09T00:55:14.726Z,75.55
2019-02-09T00:57:46.394Z,75.55
2019-02-09T01:00:23.105Z,76.12
2019-02-09T01:02:55.083Z,76.60
2019-02-09T01:05:35.296Z,76.60
2019-02-09T01:08:07.304Z,77.17
2019-02-09T01:10:39.028Z,77.17
2019-02-09T01:13:10.819Z,76.41
2019-02-09T01:15:42.127Z,76.58
2019-02-09T01:18:13.679Z,76.67
2019-02-09T01:20:45.020Z,76.08
2019-02-09T01:23:16.328Z,76.08
2019-02-09T01:25:48.020Z,76.51
2019-02-09T01:28:19.555Z,76.86
2019-02-09T01:30:51.155Z,76.86
2019-02-09T01:33:22.764Z,76.55
2019-02-09T01:35:54.484Z,76.71
2019-02-09T01:38:26.215Z,77.43
2019-02-09T01:40:59.483Z,77.10
2019-02-09T01:43:30.867Z,77.10
2019-02-09T01:46:02.529Z,76.78
2019-02-09T01:48:34.259Z,76.78
2019-02-09T01:51:06.515Z,76.22
2019-02-09T01:53:38.086Z,70.03
2019-02-09T01:56:10.891Z,70.03
2019-02-09T01:58:42.381Z,66.23
2019-02-09T02:01:13.838Z,64.71
2019-02-09T02:03:45.101Z,64.29
2019-02-09T02:06:16.620Z,64.29
2019-02-09T02:08:48.072Z,63.76
2019-02-09T02:11:19.521Z,63.76
2019-02-09T02:13:51.673Z,63.79
2019-02-09T02:16:23.120Z,63.52
2019-02-09T02:18:55.498Z,63.52
2019-02-09T02:21:27.273Z,63.31
2019-02-09T02:23:58.947Z,63.31
2019-02-09T02:26:30.906Z,62.86
2019-02-09T02:29:02.682Z,62.86
2019-02-09T02:31:34.323Z,62.75
2019-02-09T02:34:06.110Z,62.75
2019-02-09T02:36:37.447Z,63.05
2019-02-09T02:39:12.478Z,63.01
2019-02-09T02:41:43.963Z,62.43
2019-02-09T02:44:15.566Z,63.22
2019-02-09T02:46:47.501Z,61.96
2019-02-09T02:49:19.088Z,61.67
2019-02-09T02:51:50.979Z,61.67
2019-02-09T02:54:22.503Z,61.74
2019-02-09T02:56:54.182Z,63.21
2019-02-09T02:59:26.051Z,63.21
2019-02-09T03:01:57.553Z,63.46
2019-02-09T03:04:29.079Z,62.63
2019-02-09T03:07:00.836Z,63.78
2019-02-09T03:09:32.768Z,63.78
2019-02-09T03:12:04.249Z,63.59
2019-02-09T03:14:35.920Z,62.08
2019-02-09T03:17:07.113Z,61.54
2019-02-09T03:19:38.676Z,61.40
2019-02-09T03:22:10.026Z,61.40
2019-02-09T03:24:41.577Z,62.32
2019-02-09T03:27:12.936Z,63.24
2019-02-09T03:29:44.776Z,62.50
2019-02-09T03:32:16.074Z,62.23
2019-02-09T03:34:48.168Z,63.52
2019-02-09T03:37:19.495Z,63.52
2019-02-09T03:39:51.054Z,62.69
2019-02-09T03:42:22.810Z,62.99
2019-02-09T03:44:54.211Z,62.80
2019-02-09T03:47:26.838Z,62.14
2019-02-09T03:49:58.228Z,62.57
2019-02-09T03:52:29.803Z,62.57
2019-02-09T03:55:02.010Z,62.34
2019-02-09T03:57:33.211Z,62.03
2019-02-09T04:00:06.719Z,62.54
2019-02-09T04:02:38.736Z,62.79
2019-02-09T04:05:11.350Z,61.99
2019-02-09T04:07:42.932Z,61.99
2019-02-09T04:10:15.896Z,61.77
2019-02-09T04:12:47.727Z,61.22
2019-02-09T04:15:21.637Z,61.22
2019-02-09T04:17:53.580Z,63.54
2019-02-09T04:20:25.973Z,63.35
2019-02-09T04:22:58.015Z,60.79
2019-02-09T04:25:29.354Z,60.79
2019-02-09T04:28:00.965Z,62.34
2019-02-09T04:30:33.334Z,62.08
2019-02-09T04:33:04.633Z,62.08
2019-02-09T04:35:36.340Z,61.90
2019-02-09T04:38:07.401Z,60.79
2019-02-09T04:40:39.085Z,61.05
2019-02-09T04:43:10.754Z,60.54
2019-02-09T04:45:42.949Z,59.06
2019-02-09T04:48:14.746Z,59.06
2019-02-09T04:50:46.232Z,59.03
2019-02-09T04:53:18.814Z,60.09
2019-02-09T04:55:51.575Z,59.65
2019-02-09T04:58:23.222Z,59.65
2019-02-09T05:00:55.165Z,59.20
2019-02-09T05:04:44.173Z,59.53
2019-02-09T05:07:35.999Z,59.53
2019-02-09T05:14:21.773Z,60.97
2019-02-09T05:17:44.017Z,59.89
2019-02-09T05:24:16.502Z,59.04
2019-02-09T05:27:39.096Z,57.89
2019-02-09T05:31:22.457Z,55.21
2019-02-09T05:34:55.715Z,55.21
2019-02-09T05:42:10.400Z,56.59
2019-02-09T05:49:04.708Z,53.42
2019-02-09T05:52:49.262Z,53.58
2019-02-09T05:56:33.739Z,54.16
2019-02-09T06:00:05.074Z,52.90
2019-02-09T06:07:10.749Z,52.08
2019-02-09T06:11:40.981Z,52.08
2019-02-09T06:14:33.688Z,50.99
2019-02-09T06:23:04.053Z,47.89
2019-02-09T06:26:20.860Z,47.43
2019-02-09T06:32:58.542Z,48.13
2019-02-09T06:44:04.204Z,47.63
2019-02-09T06:47:09.264Z,47.50
2019-02-09T06:50:20.793Z,47.89
2019-02-09T06:53:48.231Z,47.89
2019-02-09T07:01:40.076Z,47.62
2019-02-09T07:04:49.753Z,42.52
2019-02-09T07:07:40.971Z,44.24
2019-02-09T07:14:55.710Z,43.12
2019-02-09T07:17:51.536Z,43.12
2019-02-09T07:21:16.719Z,44.07
2019-02-09T07:25:13.615Z,44.37
2019-02-09T07:27:53.523Z,41.44
2019-02-09T07:34:49.702Z,42.10
2019-02-09T07:38:18.985Z,42.00
2019-02-09T07:45:10.668Z,42.98
2019-02-09T07:48:31.856Z,42.98
2019-02-09T07:52:07.864Z,44.06
2019-02-09T07:55:47.865Z,44.51
2019-02-09T07:58:33.938Z,44.39
2019-02-09T08:02:11.860Z,45.21
2019-02-09T08:05:55.328Z,44.74
2019-02-09T08:09:12.634Z,44.74
2019-02-09T08:19:47.325Z,44.28
2019-02-09T08:27:07.974Z,44.80
2019-02-09T08:29:43.138Z,45.32
2019-02-09T08:32:15.369Z,44.57
2019-02-09T08:34:46.943Z,45.74
2019-02-09T08:37:18.418Z,46.07
2019-02-09T08:39:50.422Z,46.07
2019-02-09T08:42:22.170Z,47.61
2019-02-09T08:44:53.779Z,47.79
2019-02-09T08:47:25.359Z,47.79
2019-02-09T08:49:57.239Z,42.06
2019-02-09T08:52:28.970Z,46.07
2019-02-09T08:55:00.525Z,44.62
2019-02-09T08:57:32.635Z,44.62
2019-02-09T09:00:05.975Z,42.48
2019-02-09T09:02:38.537Z,44.79
2019-02-09T09:05:11.506Z,43.88
2019-02-09T09:07:43.116Z,43.88
2019-02-09T09:10:16.521Z,40.43
2019-02-09T09:12:47.769Z,43.77
2019-02-09T09:15:22.771Z,42.98
2019-02-09T09:17:54.661Z,43.14
2019-02-09T09:20:28.795Z,44.29
2019-02-09T09:23:00.968Z,44.29
2019-02-09T09:25:33.079Z,44.82
2019-02-09T09:28:05.378Z,41.92
2019-02-09T09:30:37.109Z,41.92
2019-02-09T09:33:09.208Z,43.35
2019-02-09T09:35:41.832Z,44.56
2019-02-09T09:38:13.886Z,44.56
2019-02-09T09:40:45.632Z,42.83
2019-02-09T09:43:17.395Z,42.83
2019-02-09T09:45:49.806Z,43.36
2019-02-09T09:48:21.784Z,44.23
2019-02-09T09:50:53.491Z,43.60
2019-02-09T09:53:25.307Z,44.51
2019-02-09T09:55:58.179Z,44.51
2019-02-09T09:58:30.001Z,44.93
2019-02-09T10:01:01.791Z,43.41
2019-02-09T10:03:33.563Z,45.88
2019-02-09T10:06:05.712Z,45.57
2019-02-09T10:08:37.924Z,45.57
2019-02-09T10:11:09.680Z,47.04
2019-02-09T10:13:41.531Z,46.21
2019-02-09T10:16:13.350Z,47.64
2019-02-09T10:18:45.201Z,47.77
2019-02-09T10:21:16.863Z,47.22
2019-02-09T10:23:48.702Z,47.22
2019-02-09T10:26:20.686Z,48.04
2019-02-09T10:28:52.682Z,47.81
2019-02-09T10:31:25.835Z,48.31
2019-02-09T10:33:57.923Z,48.31
2019-02-09T10:36:31.051Z,48.49
2019-02-09T10:39:02.927Z,48.49
2019-02-09T10:41:36.592Z,45.81
2019-02-09T10:44:08.547Z,46.85
2019-02-09T10:46:40.067Z,46.85
2019-02-09T10:49:12.098Z,46.67
2019-02-09T10:51:43.897Z,49.39
2019-02-09T10:54:15.842Z,48.96
2019-02-09T10:56:47.324Z,48.96
2019-02-09T10:59:19.389Z,49.38
2019-02-09T11:01:51.183Z,49.38
2019-02-09T11:04:22.718Z,49.38
2019-02-09T11:06:53.925Z,49.58
2019-02-09T11:09:27.252Z,49.19
2019-02-09T11:11:59.114Z,47.78
2019-02-09T11:14:30.831Z,50.52
2019-02-09T11:17:02.368Z,50.52
2019-02-09T11:19:33.847Z,49.58
2019-02-09T11:22:05.497Z,49.06
2019-02-09T11:24:37.048Z,51.54
2019-02-09T11:27:08.810Z,51.04
2019-02-09T11:29:40.526Z,51.04
2019-02-09T11:32:12.148Z,51.59
2019-02-09T11:34:44.870Z,52.08
2019-02-09T11:37:16.592Z,51.33
2019-02-09T11:39:48.699Z,51.44
2019-02-09T11:42:20.620Z,51.44
2019-02-09T11:45:10.814Z,52.17
2019-02-09T11:47:42.338Z,52.72
2019-02-09T11:50:14.603Z,52.72
2019-02-09T11:52:47.121Z,50.08
2019-02-09T11:55:18.910Z,50.08
2019-02-09T11:57:50.781Z,52.78
2019-02-09T12:00:24.373Z,52.67
2019-02-09T12:03:02.715Z,52.67
2019-02-09T12:05:30.524Z,53.48
2019-02-09T12:08:02.743Z,51.51
2019-02-09T12:10:34.806Z,51.51
2019-02-09T12:13:07.229Z,52.46
2019-02-09T12:15:39.328Z,52.80
2019-02-09T12:18:11.419Z,54.20
2019-02-09T12:20:43.050Z,54.20
2019-02-09T12:23:16.032Z,54.79
2019-02-09T12:25:47.465Z,54.02
2019-02-09T12:28:19.057Z,54.21
2019-02-09T12:30:50.890Z,53.98
2019-02-09T12:33:23.504Z,53.98
2019-02-09T12:35:55.112Z,52.47
2019-02-09T12:38:26.635Z,53.58
2019-02-09T12:40:57.624Z,53.95
2019-02-09T12:43:29.280Z,53.95
2019-02-09T12:46:00.911Z,54.43
2019-02-09T12:48:32.451Z,54.20
2019-02-09T12:51:04.216Z,54.20
2019-02-09T12:53:35.922Z,54.86
2019-02-09T12:56:06.979Z,55.04
2019-02-09T12:58:39.577Z,55.04
2019-02-09T13:01:10.607Z,54.45
2019-02-09T13:03:42.552Z,56.07
2019-02-09T13:06:13.871Z,56.86
2019-02-09T13:08:47.090Z,56.86
2019-02-09T13:11:18.426Z,57.96
2019-02-09T13:13:50.267Z,58.19
2019-02-09T13:16:21.734Z,59.14
2019-02-09T13:18:53.420Z,59.14
2019-02-09T13:21:25.154Z,59.88
2019-02-09T13:23:56.505Z,59.88
2019-02-09T13:26:28.493Z,60.70
2019-02-09T13:29:00.021Z,60.80
2019-02-09T13:31:31.707Z,60.80
2019-02-09T13:34:03.185Z,61.50
2019-02-09T13:36:34.733Z,61.50
2019-02-09T13:39:08.686Z,61.87
2019-02-09T13:41:40.012Z,61.87
2019-02-09T13:44:11.545Z,61.90
2019-02-09T13:46:42.976Z,62.44
2019-02-09T13:49:14.912Z,62.44
2019-02-09T13:51:46.746Z,62.81
2019-02-09T13:54:18.821Z,62.98
2019-02-09T13:56:50.649Z,63.43
2019-02-09T13:59:23.199Z,63.43
2019-02-09T14:01:54.750Z,63.75
2019-02-09T14:04:26.286Z,64.13
2019-02-09T14:06:57.662Z,64.13
2019-02-09T14:09:29.839Z,63.62
2019-02-09T14:12:01.335Z,64.08
2019-02-09T14:14:33.134Z,64.08
2019-02-09T14:17:08.544Z,63.96
2019-02-09T14:19:41.640Z,63.96
2019-02-09T14:22:12.982Z,64.06
2019-02-09T14:24:44.446Z,64.06
2019-02-09T14:27:17.610Z,63.49
2019-02-09T14:29:51.115Z,63.10
2019-02-09T14:32:24.479Z,64.37
2019-02-09T14:34:56.069Z,64.75
2019-02-09T14:37:27.533Z,64.75
2019-02-09T14:39:59.302Z,64.71
2019-02-09T14:42:30.642Z,65.08
2019-02-09T14:45:02.018Z,65.08
2019-02-09T14:47:33.481Z,65.29
2019-02-09T14:50:11.109Z,65.19
2019-02-09T14:52:39.166Z,65.15
2019-02-09T14:55:12.404Z,63.38
2019-02-09T14:57:43.905Z,63.38
2019-02-09T15:00:19.228Z,64.64
2019-02-09T15:02:53.891Z,64.49
2019-02-09T15:05:24.519Z,65.24
2019-02-09T15:07:56.294Z,65.24
2019-02-09T15:10:28.154Z,65.74
2019-02-09T15:12:59.620Z,66.20
2019-02-09T15:15:33.499Z,66.53
2019-02-09T15:18:06.158Z,67.08
2019-02-09T15:20:40.130Z,67.08
2019-02-09T15:23:11.499Z,68.24
2019-02-09T15:25:42.981Z,68.95
2019-02-09T15:28:14.371Z,68.16
2019-02-09T15:30:46.138Z,68.16
2019-02-09T15:33:17.619Z,68.09
2019-02-09T15:35:49.403Z,68.09
2019-02-09T15:38:21.194Z,67.95
2019-02-09T15:40:53.028Z,67.95
2019-02-09T15:43:24.557Z,67.95
2019-02-09T15:45:56.692Z,67.95
2019-02-09T15:48:28.247Z,68.55
2019-02-09T15:51:00.572Z,68.55
2019-02-09T15:53:32.012Z,68.79
2019-02-09T15:56:03.722Z,67.98
2019-02-09T15:58:35.046Z,67.98
2019-02-09T16:01:07.261Z,67.48
2019-02-09T16:03:38.823Z,67.48
2019-02-09T16:06:10.791Z,67.62
2019-02-09T16:08:42.412Z,67.62
2019-02-09T16:11:13.845Z,67.37
2019-02-09T16:13:45.990Z,67.29
2019-02-09T16:16:17.695Z,67.29
2019-02-09T16:18:48.936Z,68.28
2019-02-09T16:21:20.425Z,68.72
2019-02-09T16:23:51.446Z,69.04
2019-02-09T16:26:22.946Z,69.04
2019-02-09T16:28:54.729Z,69.73
2019-02-09T16:31:26.484Z,70.10
2019-02-09T16:33:58.260Z,69.46
2019-02-09T16:36:40.523Z,69.56
2019-02-09T16:39:14.629Z,69.56
2019-02-09T16:41:47.381Z,70.13
2019-02-09T16:44:18.766Z,70.98
2019-02-09T16:46:52.064Z,70.17
2019-02-09T16:49:27.395Z,70.33
2019-02-09T16:52:01.782Z,70.84
2019-02-09T16:54:36.012Z,70.53
2019-02-09T16:57:08.523Z,70.53
2019-02-09T16:59:40.140Z,70.47
2019-02-09T17:02:12.634Z,70.81
2019-02-09T17:04:44.540Z,71.17
2019-02-09T17:07:16.336Z,71.54
2019-02-09T17:09:48.148Z,71.54
2019-02-09T17:12:19.940Z,71.69
2019-02-09T17:14:52.222Z,71.67
2019-02-09T17:17:23.721Z,71.70
2019-02-09T17:19:55.252Z,73.00
2019-02-09T17:22:26.558Z,72.59
2019-02-09T17:24:58.619Z,72.21
2019-02-09T17:27:30.104Z,72.21
2019-02-09T17:30:01.894Z,71.95
2019-02-09T17:32:35.350Z,72.97
2019-02-09T17:35:07.572Z,73.21
2019-02-09T17:37:39.076Z,72.70
2019-02-09T17:40:13.403Z,73.50
2019-02-09T17:42:48.444Z,73.10
2019-02-09T17:45:21.601Z,73.10
2019-02-09T17:47:52.969Z,73.58
2019-02-09T17:50:24.797Z,73.55
2019-02-09T17:52:56.069Z,73.50
2019-02-09T17:55:27.934Z,73.50
2019-02-09T17:57:59.285Z,72.54
2019-02-09T18:00:45.570Z,72.54
2019-02-09T18:03:17.251Z,72.50
2019-02-09T18:05:48.909Z,72.54
2019-02-09T18:08:20.326Z,72.90
2019-02-09T18:10:51.776Z,72.87
2019-02-09T18:13:23.687Z,72.43
2019-02-09T18:15:55.545Z,72.07
2019-02-09T18:18:27.002Z,72.07
2019-02-09T18:20:58.286Z,72.42
2019-02-09T18:23:29.648Z,72.61
2019-02-09T18:26:01.025Z,73.15
2019-02-09T18:28:32.605Z,72.90
2019-02-09T18:31:03.999Z,73.31
2019-02-09T18:33:35.558Z,73.31
2019-02-09T18:36:07.332Z,73.70
2019-02-09T18:38:39.027Z,73.70
2019-02-09T18:41:10.440Z,74.13
2019-02-09T18:43:42.483Z,73.71
2019-02-09T18:46:14.120Z,73.71
2019-02-09T18:48:45.610Z,73.85
2019-02-09T18:51:17.188Z,73.52
2019-02-09T18:53:48.970Z,73.52
2019-02-09T18:56:20.680Z,73.96
2019-02-09T18:58:52.345Z,74.11
2019-02-09T19:01:24.379Z,73.70
2019-02-09T19:03:57.602Z,74.10
2019-02-09T19:06:29.628Z,73.98
2019-02-09T19:09:01.263Z,73.98
2019-02-09T19:11:34.489Z,73.06
2019-02-09T19:14:06.259Z,72.88
2019-02-09T19:16:37.673Z,72.17
2019-02-09T19:19:09.614Z,72.17
2019-02-09T19:21:41.125Z,71.91
2019-02-09T19:24:12.985Z,71.70
2019-02-09T19:26:46.800Z,71.03
2019-02-09T19:29:18.754Z,71.92
2019-02-09T19:31:50.049Z,71.79
2019-02-09T19:34:21.388Z,71.79
2019-02-09T19:36:53.019Z,71.57
2019-02-09T19:39:24.299Z,72.46
2019-02-09T19:41:55.642Z,72.15
2019-02-09T19:44:27.057Z,72.15
2019-02-09T19:46:58.706Z,72.80
2019-02-09T19:49:30.207Z,72.80
2019-02-09T19:52:01.904Z,72.17
2019-02-09T19:54:33.634Z,72.22
2019-02-09T19:57:04.982Z,72.22
2019-02-09T19:59:36.463Z,72.99
2019-02-09T20:02:07.978Z,72.40
2019-02-09T20:04:39.666Z,72.40
2019-02-09T20:07:11.606Z,72.49
2019-02-09T20:09:43.020Z,72.77
2019-02-09T20:12:14.732Z,72.25
2019-02-09T20:14:46.258Z,73.02
2019-02-09T20:17:19.579Z,73.02
2019-02-09T20:19:52.018Z,72.20
2019-02-09T20:22:24.415Z,72.20
2019-02-09T20:24:56.344Z,72.63
2019-02-09T20:27:30.895Z,72.63
2019-02-09T20:30:03.076Z,73.45
2019-02-09T20:32:34.741Z,73.20
2019-02-09T20:35:07.816Z,72.93
2019-02-09T20:37:39.301Z,72.93
2019-02-09T20:40:16.723Z,73.51
2019-02-09T20:42:47.901Z,74.24
2019-02-09T20:45:19.560Z,73.51
2019-02-09T20:47:51.419Z,73.51
2019-02-09T20:50:24.097Z,73.60
2019-02-09T20:52:55.747Z,73.25
2019-02-09T20:55:27.509Z,73.18
2019-02-09T20:57:59.159Z,73.18
2019-02-09T21:00:30.900Z,72.70
2019-02-09T21:03:02.388Z,73.47
2019-02-09T21:05:36.437Z,73.54
2019-02-09T21:08:08.838Z,74.68
2019-02-09T21:10:40.590Z,74.68
2019-02-09T21:13:11.800Z,73.76
2019-02-09T21:15:43.506Z,73.76
2019-02-09T21:18:14.348Z,73.91
2019-02-09T21:20:46.003Z,73.91
2019-02-09T21:23:17.543Z,73.76
2019-02-09T21:25:49.090Z,74.01
2019-02-09T21:28:20.557Z,73.00
2019-02-09T21:30:52.077Z,73.04
2019-02-09T21:33:23.543Z,73.63
2019-02-09T21:35:54.967Z,73.21
2019-02-09T21:38:44.758Z,73.58
2019-02-09T21:41:16.346Z,73.74
2019-02-09T21:43:47.794Z,73.71
2019-02-09T21:46:19.854Z,73.75
2019-02-09T21:49:09.522Z,73.54
2019-02-09T21:51:41.428Z,72.32
2019-02-09T21:54:13.558Z,72.32
2019-02-09T21:56:45.098Z,73.74
2019-02-09T21:59:34.789Z,74.54
2019-02-09T22:02:06.485Z,73.94
2019-02-09T22:04:38.352Z,74.28
2019-02-09T22:07:10.079Z,74.28
2019-02-09T22:10:00.276Z,74.66
2019-02-09T22:12:31.866Z,74.66
2019-02-09T22:15:03.510Z,74.21
2019-02-09T22:17:35.022Z,74.21
2019-02-09T22:20:09.030Z,74.40
2019-02-09T22:22:40.589Z,75.56
2019-02-09T22:25:15.496Z,75.55
2019-02-09T22:27:47.813Z,75.91
2019-02-09T22:30:21.595Z,75.23
2019-02-09T22:32:53.344Z,75.38
2019-02-09T22:35:25.029Z,74.80
2019-02-09T22:37:56.975Z,74.80
2019-02-09T22:40:30.485Z,73.79
2019-02-09T22:43:02.101Z,73.79
2019-02-09T22:45:33.403Z,73.27
2019-02-09T22:48:05.059Z,73.35
2019-02-09T22:50:38.776Z,73.11
2019-02-09T22:53:10.570Z,73.03
2019-02-09T22:55:42.074Z,73.78
2019-02-09T22:58:13.694Z,73.78
2019-02-09T23:01:25.866Z,72.96
2019-02-09T23:04:36.371Z,72.96
2019-02-09T23:07:36.462Z,72.88
2019-02-09T23:10:13.540Z,73.04
2019-02-09T23:12:48.622Z,72.95
2019-02-09T23:15:18.403Z,72.95
2019-02-09T23:17:50.318Z,74.17
2019-02-09T23:20:21.631Z,73.85
2019-02-09T23:22:52.983Z,73.78
2019-02-09T23:25:24.468Z,73.78
2019-02-09T23:27:55.914Z,73.79
2019-02-09T23:30:27.683Z,74.65
2019-02-09T23:33:00.300Z,74.65
2019-02-09T23:35:32.117Z,74.23
2019-02-09T23:38:03.731Z,75.08
2019-02-09T23:40:36.554Z,75.08
2019-02-09T23:43:08.641Z,75.21
2019-02-09T23:45:39.821Z,74.99
2019-02-09T23:48:11.865Z,75.50
2019-02-09T23:50:43.326Z,75.21
2019-02-09T23:53:14.996Z,75.19
2019-02-09T23:55:46.617Z,75.19
2019-02-09T23:58:18.475Z,76.25
